Time;durP1;ratioP1;P1;durP2;ratioP2;P2;SDS_P1;SDS_P2;PMS_P1;PMS_P2;Temp;Humidity;BMP_temperature;BMP_pressure;BME280_temperature;BME280_humidity;BME280_pressure;Samples;Min_cycle;Max_cycle;Signal;HPM_P1;HPM_P2
2023/08/08 00:09:46;;;;;;;3.9;1.3;;;;;;;14.97;82.39;;;;;
2023/08/08 00:19:45;;;;;;;2.7;1;;;;;;;14.92;82.36;;;;;
2023/08/08 00:30:45;;;;;;;2.7;1;;;;;;;14.94;81.82;;;;;
2023/08/08 00:40:45;;;;;;;2.7;1;;;;;;;14.92;81.83;;;;;
2023/08/08 00:51:45;;;;;;;2.5;0.9;;;;;;;14.77;82.04;;;;;
2023/08/08 01:01:45;;;;;;;2.5;0.9;;;;;;;14.73;82.2;;;;;
2023/08/08 01:12:45;;;;;;;3.3;1.2;;;;;;;14.55;82.4;;;;;
2023/08/08 01:23:45;;;;;;;3.3;1.2;;;;;;;14.58;82.21;;;;;
2023/08/08 01:33:45;;;;;;;3.3;1.2;;;;;;;14.44;81.95;;;;;
2023/08/08 01:44:45;;;;;;;3.7;1.2;;;;;;;14.32;81.55;;;;;
2023/08/08 01:54:45;;;;;;;3.7;1.2;;;;;;;14.09;81.6;;;;;
2023/08/08 02:05:46;;;;;;;3.7;1.2;;;;;;;13.94;81.47;;;;;
2023/08/08 02:16:45;;;;;;;2.1;0.8;;;;;;;13.73;81.59;;;;;
2023/08/08 02:26:46;;;;;;;2.1;0.8;;;;;;;13.65;81.53;;;;;
2023/08/08 02:37:45;;;;;;;2.1;0.8;;;;;;;13.54;80.94;;;;;
2023/08/08 02:48:45;;;;;;;2;0.9;;;;;;;13.35;81.1;;;;;
2023/08/08 02:59:45;;;;;;;2;0.9;;;;;;;13.21;81.31;;;;;
2023/08/08 03:09:45;;;;;;;2;0.9;;;;;;;12.99;82.15;;;;;
2023/08/08 03:20:46;;;;;;;3.5;1;;;;;;;12.89;82.73;;;;;
2023/08/08 03:31:45;;;;;;;3.5;1;;;;;;;12.87;82.17;;;;;
2023/08/08 03:42:45;;;;;;;3.8;1.7;;;;;;;12.94;82.48;;;;;
2023/08/08 03:53:45;;;;;;;3.8;1.7;;;;;;;13.03;82.47;;;;;
2023/08/08 04:03:45;;;;;;;3.8;1.7;;;;;;;13.29;82.44;;;;;
2023/08/08 04:13:45;;;;;;;5.3;1.7;;;;;;;13.73;80.47;;;;;
2023/08/08 04:23:45;;;;;;;5.3;1.7;;;;;;;13.9;78.77;;;;;
2023/08/08 04:34:45;;;;;;;5.3;1.7;;;;;;;14.11;78.68;;;;;
2023/08/08 04:45:45;;;;;;;2.5;1.1;;;;;;;14.62;78.56;;;;;
2023/08/08 04:55:46;;;;;;;2.5;1.1;;;;;;;15.04;77.03;;;;;
2023/08/08 05:06:46;;;;;;;2.5;1.1;;;;;;;15.18;76.64;;;;;
2023/08/08 05:16:46;;;;;;;2.6;1.3;;;;;;;15.05;77;;;;;
2023/08/08 05:27:46;;;;;;;2.6;1.3;;;;;;;15.42;76.16;;;;;
2023/08/08 05:37:45;;;;;;;2.6;1.3;;;;;;;15.53;74.46;;;;;
2023/08/08 05:47:45;;;;;;;4.1;1.8;;;;;;;15.98;72.84;;;;;
2023/08/08 05:58:46;;;;;;;4.1;1.8;;;;;;;16.2;69.6;;;;;
2023/08/08 06:09:45;;;;;;;4.1;1.8;;;;;;;15.92;69.56;;;;;
2023/08/08 06:19:45;;;;;;;4;1.9;;;;;;;16.52;70.16;;;;;
2023/08/08 06:29:46;;;;;;;4;1.9;;;;;;;17.05;66.71;;;;;
2023/08/08 06:40:46;;;;;;;4;1.9;;;;;;;17.02;68.33;;;;;
2023/08/08 06:51:16;;;;;;;5.3;1.4;;;;;;;16.97;67.57;;;;;
2023/08/08 07:01:16;;;;;;;5.3;1.4;;;;;;;17.11;66.43;;;;;
2023/08/08 07:12:16;;;;;;;4.7;2.1;;;;;;;17.21;62.95;;;;;
2023/08/08 07:22:16;;;;;;;4.7;2.1;;;;;;;17.47;64.25;;;;;
2023/08/08 07:32:17;;;;;;;4.7;2.1;;;;;;;17.38;62.98;;;;;
2023/08/08 07:42:16;;;;;;;4;1.6;;;;;;;17.95;61.44;;;;;
2023/08/08 07:53:16;;;;;;;4;1.6;;;;;;;18.32;60.94;;;;;
2023/08/08 08:04:16;;;;;;;4;1.6;;;;;;;18.2;61.33;;;;;
2023/08/08 08:14:16;;;;;;;4;1.8;;;;;;;18.02;59.15;;;;;
2023/08/08 08:24:16;;;;;;;4;1.8;;;;;;;18.83;57.37;;;;;
2023/08/08 08:35:16;;;;;;;4;1.8;;;;;;;18.92;51.65;;;;;
2023/08/08 08:46:18;;;;;;;3.1;1.6;;;;;;;19.3;54.03;;;;;
2023/08/08 08:57:16;;;;;;;3.1;1.6;;;;;;;19.02;55.65;;;;;
2023/08/08 09:08:16;;;;;;;3.1;1.6;;;;;;;19.11;51.74;;;;;
2023/08/08 09:18:17;;;;;;;3.8;1.5;;;;;;;19.89;51.62;;;;;
2023/08/08 09:28:16;;;;;;;3.8;1.5;;;;;;;19.55;48.78;;;;;
2023/08/08 09:39:16;;;;;;;3.8;1.5;;;;;;;19.64;50.97;;;;;
2023/08/08 09:50:18;;;;;;;3.8;1.6;;;;;;;19.94;51.17;;;;;
2023/08/08 10:00:16;;;;;;;3.8;1.6;;;;;;;20.11;52.42;;;;;
2023/08/08 10:11:16;;;;;;;3.8;1.6;;;;;;;20.67;47.71;;;;;
2023/08/08 10:22:16;;;;;;;4;1.6;;;;;;;20.3;47.84;;;;;
2023/08/08 10:33:17;;;;;;;4;1.6;;;;;;;20.05;48.72;;;;;
2023/08/08 10:43:17;;;;;;;3.8;1.5;;;;;;;19.96;50.14;;;;;
2023/08/08 10:53:17;;;;;;;3.8;1.5;;;;;;;20.02;50.73;;;;;
2023/08/08 11:03:17;;;;;;;3.8;1.5;;;;;;;19.82;53.66;;;;;
2023/08/08 11:13:17;;;;;;;3.3;1.4;;;;;;;19.7;53.91;;;;;
2023/08/08 11:24:17;;;;;;;3.3;1.4;;;;;;;19.79;56.51;;;;;
2023/08/08 11:35:17;;;;;;;3.3;1.4;;;;;;;19.82;53.44;;;;;
2023/08/08 11:46:17;;;;;;;4.8;1.5;;;;;;;19.36;53.28;;;;;
2023/08/08 11:56:17;;;;;;;4.8;1.5;;;;;;;18.8;54.02;;;;;
2023/08/08 12:07:17;;;;;;;4.8;1.5;;;;;;;18.39;59.84;;;;;
2023/08/08 12:17:17;;;;;;;3;1.5;;;;;;;17.78;62.55;;;;;
2023/08/08 12:27:17;;;;;;;3;1.5;;;;;;;17.49;63.43;;;;;
2023/08/08 12:38:17;;;;;;;3;1.5;;;;;;;18.07;63.97;;;;;
2023/08/08 12:49:17;;;;;;;3.9;1.9;;;;;;;19.14;61.52;;;;;
2023/08/08 12:59:17;;;;;;;3.9;1.9;;;;;;;19.65;62.89;;;;;
2023/08/08 13:09:17;;;;;;;3.9;1.9;;;;;;;20.25;55.27;;;;;
2023/08/08 13:20:17;;;;;;;3.6;1.6;;;;;;;20.05;52.79;;;;;
2023/08/08 13:30:17;;;;;;;3.6;1.6;;;;;;;20.23;55.01;;;;;
2023/08/08 13:40:17;;;;;;;3.6;1.6;;;;;;;20.72;51.64;;;;;
2023/08/08 13:51:17;;;;;;;3.7;1.7;;;;;;;20.8;49.45;;;;;
2023/08/08 14:02:18;;;;;;;3.7;1.7;;;;;;;20.41;47.71;;;;;
2023/08/08 14:12:17;;;;;;;2.9;1.3;;;;;;;20.06;48.44;;;;;
2023/08/08 14:23:17;;;;;;;2.9;1.3;;;;;;;20.2;49.11;;;;;
2023/08/08 14:34:17;;;;;;;2.9;1.3;;;;;;;20.39;46.59;;;;;
2023/08/08 14:44:17;;;;;;;4.2;1.5;;;;;;;21.37;46.76;;;;;
2023/08/08 14:55:17;;;;;;;4.2;1.5;;;;;;;22.21;43.5;;;;;
2023/08/08 15:05:17;;;;;;;4.2;1.5;;;;;;;21.87;45.32;;;;;
2023/08/08 15:16:17;;;;;;;6.1;1.7;;;;;;;22.67;45.27;;;;;
2023/08/08 15:26:20;;;;;;;6.1;1.7;;;;;;;24.44;40;;;;;
2023/08/08 15:36:17;;;;;;;6.1;1.7;;;;;;;25.81;38.91;;;;;
2023/08/08 15:47:17;;;;;;;2.8;1.1;;;;;;;24.3;39.85;;;;;
2023/08/08 15:57:17;;;;;;;2.8;1.1;;;;;;;22.91;42;;;;;
2023/08/08 16:07:19;;;;;;;2.8;1.1;;;;;;;21.61;46.92;;;;;
2023/08/08 16:18:17;;;;;;;3;1.2;;;;;;;21.89;46;;;;;
2023/08/08 16:28:17;;;;;;;3;1.2;;;;;;;21.57;47.13;;;;;
2023/08/08 16:39:17;;;;;;;3;1.2;;;;;;;20.7;50.09;;;;;
2023/08/08 16:49:17;;;;;;;4.4;1.8;;;;;;;19.74;55.23;;;;;
2023/08/08 17:00:17;;;;;;;4.4;1.8;;;;;;;19.45;58.06;;;;;
2023/08/08 17:10:17;;;;;;;4.4;1.8;;;;;;;19.1;56.93;;;;;
2023/08/08 17:21:17;;;;;;;3.4;1.5;;;;;;;19.15;57.41;;;;;
2023/08/08 17:31:17;;;;;;;3.4;1.5;;;;;;;20.03;54.49;;;;;
2023/08/08 17:42:17;;;;;;;3.4;1.6;;;;;;;18.73;59.77;;;;;
2023/08/08 17:52:17;;;;;;;3.4;1.6;;;;;;;17.33;64.45;;;;;
2023/08/08 18:02:17;;;;;;;3.4;1.6;;;;;;;16.6;66.81;;;;;
2023/08/08 18:13:17;;;;;;;5.5;2.3;;;;;;;15.96;68.75;;;;;
2023/08/08 18:24:17;;;;;;;5.5;2.3;;;;;;;15.61;69.47;;;;;
2023/08/08 18:35:17;;;;;;;5.5;2.3;;;;;;;15.09;72.29;;;;;
2023/08/08 18:45:17;;;;;;;5.4;2.9;;;;;;;14.9;72.84;;;;;
2023/08/08 18:56:17;;;;;;;5.4;2.9;;;;;;;14.57;74.69;;;;;
2023/08/08 19:07:17;;;;;;;5.4;2.9;;;;;;;14.46;74.36;;;;;
2023/08/08 19:18:17;;;;;;;4.8;2.4;;;;;;;14.41;73.9;;;;;
2023/08/08 19:29:17;;;;;;;4.8;2.4;;;;;;;14.23;74.29;;;;;
2023/08/08 19:40:17;;;;;;;4.8;2.4;;;;;;;14.23;73.6;;;;;
2023/08/08 19:51:17;;;;;;;5.8;3.2;;;;;;;14.16;73.35;;;;;
2023/08/08 20:02:17;;;;;;;5.8;3.2;;;;;;;14.05;73.27;;;;;
2023/08/08 20:12:17;;;;;;;4.7;2.7;;;;;;;13.98;73;;;;;
2023/08/08 20:22:17;;;;;;;4.7;2.7;;;;;;;13.89;72.9;;;;;
2023/08/08 20:33:17;;;;;;;4.7;2.7;;;;;;;13.91;72.24;;;;;
2023/08/08 20:44:17;;;;;;;4;2.1;;;;;;;13.86;72.56;;;;;
2023/08/08 20:54:17;;;;;;;4;2.1;;;;;;;13.74;72.56;;;;;
2023/08/08 21:04:17;;;;;;;4;2.1;;;;;;;13.81;72.91;;;;;
2023/08/08 21:15:17;;;;;;;4.3;1.6;;;;;;;13.99;72.6;;;;;
2023/08/08 21:25:17;;;;;;;4.3;1.6;;;;;;;14.23;71.89;;;;;
2023/08/08 21:36:17;;;;;;;4.3;1.6;;;;;;;14.49;71.3;;;;;
2023/08/08 21:46:17;;;;;;;3.8;1.8;;;;;;;14.64;71.05;;;;;
2023/08/08 21:57:17;;;;;;;3.8;1.8;;;;;;;14.86;70.63;;;;;
2023/08/08 22:07:17;;;;;;;3.8;1.8;;;;;;;15.02;70.47;;;;;
2023/08/08 22:17:17;;;;;;;3.3;1.8;;;;;;;15.07;70.69;;;;;
2023/08/08 22:28:17;;;;;;;3.3;1.8;;;;;;;14.79;77.98;;;;;
2023/08/08 22:39:17;;;;;;;3.3;1.8;;;;;;;14.58;79.91;;;;;
2023/08/08 22:50:17;;;;;;;4.2;2.5;;;;;;;14.39;80.98;;;;;
2023/08/08 23:00:17;;;;;;;4.2;2.5;;;;;;;14.48;81.1;;;;;
2023/08/08 23:52:19;;;;;;;6.6;2;;;;;;;14.05;85.46;;;;;
